createdAt,value
2017-08-02T00:00:09.757Z,23
2017-08-02T00:02:16.763Z,23
2017-08-02T00:04:09.018Z,23
2017-08-02T00:06:07.027Z,23
2017-08-02T00:08:06.844Z,23
2017-08-02T00:10:06.561Z,23
2017-08-02T00:12:09.798Z,23
2017-08-02T00:14:11.736Z,23
2017-08-02T00:16:08.998Z,23
2017-08-02T00:18:06.972Z,23
2017-08-02T00:20:09.240Z,23
2017-08-02T00:22:07.075Z,23
2017-08-02T00:24:06.737Z,23
2017-08-02T00:26:09.044Z,23
2017-08-02T00:28:06.766Z,23
2017-08-02T00:30:06.549Z,23
2017-08-02T00:32:07.358Z,23
2017-08-02T00:34:07.131Z,23
2017-08-02T00:36:06.873Z,23
2017-08-02T00:38:16.744Z,23
2017-08-02T00:40:06.495Z,23
2017-08-02T00:42:07.184Z,23
2017-08-02T00:44:12.091Z,23
2017-08-02T00:46:06.785Z,23
2017-08-02T00:48:09.026Z,23
2017-08-02T00:50:06.762Z,23
2017-08-02T00:52:09.018Z,23
2017-08-02T00:54:19.506Z,23
2017-08-02T00:56:07.504Z,23
2017-08-02T00:58:07.285Z,23
2017-08-02T01:00:19.673Z,23
2017-08-02T01:02:09.960Z,23
2017-08-02T01:04:06.684Z,23
2017-08-02T01:06:08.961Z,23
2017-08-02T01:08:14.433Z,23
2017-08-02T01:10:07.428Z,23
2017-08-02T01:12:14.739Z,22
2017-08-02T01:14:06.579Z,23
2017-08-02T01:16:09.900Z,23
2017-08-02T01:18:11.900Z,23
2017-08-02T01:20:11.715Z,22
2017-08-02T01:22:11.496Z,22
2017-08-02T01:24:09.738Z,22
2017-08-02T01:26:06.465Z,23
2017-08-02T01:28:07.369Z,23
2017-08-02T01:30:09.698Z,22
2017-08-02T01:32:09.229Z,21
2017-08-02T01:34:07.142Z,22
2017-08-02T01:36:09.398Z,22
2017-08-02T01:38:07.130Z,22
2017-08-02T01:40:06.804Z,22
2017-08-02T01:42:06.771Z,21
2017-08-02T01:44:09.152Z,21
2017-08-02T01:46:06.911Z,21
2017-08-02T01:48:14.211Z,21
2017-08-02T01:50:07.139Z,21
2017-08-02T01:52:09.379Z,21
2017-08-02T01:54:09.614Z,22
2017-08-02T01:56:07.433Z,21
2017-08-02T01:58:07.117Z,21
2017-08-02T02:00:06.791Z,21
2017-08-02T02:02:09.082Z,20
2017-08-02T02:04:06.786Z,21
2017-08-02T02:06:09.037Z,21
2017-08-02T02:08:06.909Z,21
2017-08-02T02:10:09.247Z,21
2017-08-02T02:12:09.462Z,21
2017-08-02T02:14:07.602Z,21
2017-08-02T02:16:07.346Z,21
2017-08-02T02:18:12.327Z,21
2017-08-02T02:20:12.311Z,20
2017-08-02T02:22:07.010Z,21
2017-08-02T02:24:11.801Z,20
2017-08-02T02:26:09.388Z,21
2017-08-02T02:28:12.145Z,20
2017-08-02T02:30:17.316Z,20
2017-08-02T02:32:09.749Z,21
2017-08-02T02:34:06.568Z,20
2017-08-02T02:36:17.460Z,20
2017-08-02T02:38:07.475Z,21
2017-08-02T02:40:09.673Z,20
2017-08-02T02:42:07.376Z,20
2017-08-02T02:44:07.221Z,21
2017-08-02T02:46:07.168Z,21
2017-08-02T02:48:06.900Z,21
2017-08-02T02:50:06.634Z,21
2017-08-02T02:52:07.396Z,21
2017-08-02T02:54:07.265Z,21
2017-08-02T02:56:07.185Z,21
2017-08-02T02:58:06.914Z,21
2017-08-02T03:00:09.149Z,21
2017-08-02T03:02:09.531Z,20
2017-08-02T03:04:09.756Z,21
2017-08-02T03:06:06.388Z,21
2017-08-02T03:08:07.148Z,21
2017-08-02T03:10:06.912Z,21
2017-08-02T03:12:09.252Z,21
2017-08-02T03:14:14.563Z,21
2017-08-02T03:16:09.869Z,21
2017-08-02T03:18:07.077Z,21
2017-08-02T03:20:09.676Z,22
2017-08-02T03:22:07.393Z,22
2017-08-02T03:24:09.611Z,22
2017-08-02T03:26:12.800Z,21
2017-08-02T03:28:06.517Z,20
2017-08-02T03:30:07.237Z,22
2017-08-02T03:32:09.507Z,22
2017-08-02T03:34:17.531Z,22
2017-08-02T03:36:07.274Z,22
2017-08-02T03:38:09.543Z,23
2017-08-02T03:40:07.365Z,23
2017-08-02T03:42:07.061Z,23
2017-08-02T03:44:06.876Z,23
2017-08-02T03:46:06.612Z,23
2017-08-02T03:48:09.874Z,23
2017-08-02T03:50:06.738Z,23
2017-08-02T03:52:08.962Z,23
2017-08-02T03:54:06.685Z,23
2017-08-02T03:56:07.517Z,23
2017-08-02T03:58:07.295Z,23
2017-08-02T04:00:12.054Z,23
2017-08-02T04:02:09.277Z,24
2017-08-02T04:04:12.038Z,23
2017-08-02T04:06:06.842Z,25
2017-08-02T04:08:06.640Z,25
2017-08-02T04:10:07.367Z,26
2017-08-02T04:12:07.060Z,26
2017-08-02T04:14:09.404Z,26
2017-08-02T04:16:07.132Z,26
2017-08-02T04:18:17.129Z,27
2017-08-02T04:20:09.691Z,27
2017-08-02T04:22:08.978Z,29
2017-08-02T04:24:06.762Z,30
2017-08-02T04:26:06.664Z,31
2017-08-02T04:28:07.355Z,31
2017-08-02T04:30:07.022Z,31
2017-08-02T04:32:09.350Z,31
2017-08-02T04:34:07.028Z,31
2017-08-02T04:36:06.745Z,31
2017-08-02T04:38:06.548Z,31
2017-08-02T04:40:14.839Z,31
2017-08-02T04:42:06.569Z,31
2017-08-02T04:44:09.848Z,31
2017-08-02T04:46:09.161Z,31
2017-08-02T04:48:09.661Z,32
2017-08-02T04:50:07.565Z,32
2017-08-02T04:52:07.290Z,32
2017-08-02T04:54:09.956Z,33
2017-08-02T04:56:06.717Z,33
2017-08-02T04:58:11.600Z,33
2017-08-02T05:00:14.901Z,33
2017-08-02T05:02:09.512Z,34
2017-08-02T05:04:09.692Z,34
2017-08-02T05:06:06.444Z,34
2017-08-02T05:08:07.215Z,34
2017-08-02T05:10:06.906Z,34
2017-08-02T05:12:09.145Z,34
2017-08-02T05:14:09.559Z,34
2017-08-02T05:16:07.243Z,35
2017-08-02T05:18:07.156Z,35
2017-08-02T05:20:06.963Z,35
2017-08-02T05:22:06.693Z,35
2017-08-02T05:24:11.461Z,35
2017-08-02T05:26:07.332Z,35
2017-08-02T05:28:09.571Z,35
2017-08-02T05:30:17.437Z,35
2017-08-02T05:32:07.167Z,35
2017-08-02T05:34:06.881Z,35
2017-08-02T05:36:09.154Z,35
2017-08-02T05:38:07.018Z,34
2017-08-02T05:40:09.242Z,34
2017-08-02T05:42:06.977Z,34
2017-08-02T05:44:11.777Z,34
2017-08-02T05:46:11.620Z,34
2017-08-02T05:48:12.808Z,34
2017-08-02T05:50:09.231Z,33
2017-08-02T05:52:11.983Z,33
2017-08-02T05:54:06.687Z,33
2017-08-02T05:56:06.734Z,33
2017-08-02T05:58:06.668Z,33
2017-08-02T06:00:07.330Z,33
2017-08-02T06:02:07.382Z,33
2017-08-02T06:04:14.654Z,33
2017-08-02T06:06:07.360Z,33
2017-08-02T06:08:07.137Z,33
2017-08-02T06:10:11.962Z,33
2017-08-02T06:12:06.735Z,32
2017-08-02T06:14:06.466Z,33
2017-08-02T06:16:12.254Z,31
2017-08-02T06:18:09.679Z,32
2017-08-02T06:20:07.491Z,31
2017-08-02T06:22:07.213Z,32
2017-08-02T06:24:06.925Z,31
2017-08-02T06:26:11.886Z,31
2017-08-02T06:28:06.605Z,31
2017-08-02T06:30:10.023Z,31
2017-08-02T06:32:06.764Z,31
2017-08-02T06:34:06.450Z,31
2017-08-02T06:36:07.157Z,31
2017-08-02T06:38:09.505Z,31
2017-08-02T06:40:07.355Z,31
2017-08-02T06:42:07.069Z,31
2017-08-02T06:44:09.597Z,31
2017-08-02T06:46:07.481Z,31
2017-08-02T06:48:09.774Z,31
2017-08-02T06:50:06.510Z,31
2017-08-02T06:52:07.282Z,31
2017-08-02T06:54:09.516Z,31
2017-08-02T06:56:07.210Z,31
2017-08-02T06:58:06.921Z,31
2017-08-02T07:00:06.624Z,31
2017-08-02T07:02:07.504Z,31
2017-08-02T07:04:14.809Z,30
2017-08-02T07:06:06.549Z,30
2017-08-02T07:08:12.536Z,30
2017-08-02T07:10:07.269Z,30
2017-08-02T07:12:07.059Z,31
2017-08-02T07:14:09.496Z,31
2017-08-02T07:16:14.838Z,31
2017-08-02T07:18:09.276Z,31
2017-08-02T07:20:07.409Z,31
2017-08-02T07:22:07.133Z,31
2017-08-02T07:24:09.396Z,31
2017-08-02T07:26:09.646Z,31
2017-08-02T07:28:09.900Z,31
2017-08-02T07:30:06.649Z,30
2017-08-02T07:32:07.644Z,30
2017-08-02T07:34:10.080Z,30
2017-08-02T07:36:07.800Z,30
2017-08-02T07:38:09.331Z,30
2017-08-02T07:40:07.194Z,30
2017-08-02T07:42:07.004Z,30
2017-08-02T07:44:09.334Z,30
2017-08-02T07:46:07.088Z,30
2017-08-02T07:48:09.327Z,30
2017-08-02T07:50:12.252Z,30
2017-08-02T07:52:09.479Z,30
2017-08-02T07:54:09.692Z,30
2017-08-02T07:56:06.563Z,30
2017-08-02T07:58:07.531Z,30
2017-08-02T08:00:07.304Z,30
2017-08-02T08:02:07.145Z,30
2017-08-02T08:04:06.840Z,30
2017-08-02T08:06:06.651Z,30
2017-08-02T08:08:12.502Z,30
2017-08-02T08:10:09.743Z,30
2017-08-02T08:12:09.022Z,30
2017-08-02T08:14:09.640Z,30
2017-08-02T08:16:09.936Z,29
2017-08-02T08:18:06.854Z,28
2017-08-02T08:20:06.834Z,28
2017-08-02T08:22:06.654Z,28
2017-08-02T08:24:07.398Z,26
2017-08-02T08:26:10.065Z,26
2017-08-02T08:28:06.745Z,25
2017-08-02T08:30:06.467Z,26
2017-08-02T08:32:07.614Z,26
2017-08-02T08:34:07.321Z,25
2017-08-02T08:36:09.617Z,26
2017-08-02T08:38:07.707Z,26
2017-08-02T08:40:11.525Z,26
2017-08-02T08:42:07.249Z,26
2017-08-02T08:44:07.145Z,26
2017-08-02T08:46:11.894Z,26
2017-08-02T08:48:07.634Z,26
2017-08-02T08:50:07.579Z,26
2017-08-02T08:52:06.642Z,26
2017-08-02T08:54:10.230Z,26
2017-08-02T08:56:12.123Z,26
2017-08-02T08:58:14.380Z,26
2017-08-02T09:00:07.112Z,26
2017-08-02T09:02:06.957Z,26
2017-08-02T09:04:09.216Z,26
2017-08-02T09:06:06.977Z,25
2017-08-02T09:08:09.384Z,25
2017-08-02T09:10:09.828Z,25
2017-08-02T09:12:09.033Z,25
2017-08-02T09:14:06.909Z,26
2017-08-02T09:16:11.694Z,25
2017-08-02T09:18:06.666Z,25
2017-08-02T09:20:09.983Z,25
2017-08-02T09:22:06.715Z,26
2017-08-02T09:24:06.439Z,26
2017-08-02T09:26:07.498Z,26
2017-08-02T09:28:09.729Z,25
2017-08-02T09:30:06.408Z,25
2017-08-02T09:32:07.160Z,25
2017-08-02T09:34:06.835Z,25
2017-08-02T09:36:06.560Z,25
2017-08-02T09:38:07.307Z,25
2017-08-02T09:40:17.148Z,25
2017-08-02T09:42:12.036Z,25
2017-08-02T09:44:06.901Z,25
2017-08-02T09:46:06.682Z,25
2017-08-02T09:48:12.438Z,25
2017-08-02T09:50:07.110Z,25
2017-08-02T09:52:11.966Z,24
2017-08-02T09:54:06.637Z,25
2017-08-02T09:56:07.358Z,25
2017-08-02T09:58:17.328Z,24
2017-08-02T10:00:07.071Z,24
2017-08-02T10:02:11.832Z,25
2017-08-02T10:04:07.009Z,25
2017-08-02T10:06:17.369Z,25
2017-08-02T10:08:07.598Z,25
2017-08-02T10:10:07.288Z,25
2017-08-02T10:12:06.937Z,25
2017-08-02T10:14:09.369Z,24
2017-08-02T10:16:07.035Z,24
2017-08-02T10:18:06.947Z,24
2017-08-02T10:20:09.525Z,25
2017-08-02T10:22:07.290Z,25
2017-08-02T10:24:09.549Z,25
2017-08-02T10:26:12.332Z,25
2017-08-02T10:28:07.041Z,25
2017-08-02T10:30:06.832Z,25
2017-08-02T10:32:09.697Z,25
2017-08-02T10:34:08.940Z,25
2017-08-02T10:36:14.218Z,25
2017-08-02T10:38:12.303Z,23
2017-08-02T10:40:07.048Z,23
2017-08-02T10:42:06.775Z,25
2017-08-02T10:44:06.728Z,24
2017-08-02T10:46:06.453Z,22
2017-08-02T10:48:09.757Z,20
2017-08-02T10:50:06.625Z,20
2017-08-02T10:52:12.430Z,19
2017-08-02T10:54:07.193Z,19
2017-08-02T10:56:09.508Z,19
2017-08-02T10:58:09.846Z,19
2017-08-02T11:00:09.122Z,19
2017-08-02T11:02:09.626Z,19
2017-08-02T11:04:07.392Z,19
2017-08-02T11:06:07.601Z,19
2017-08-02T11:08:07.547Z,19
2017-08-02T11:10:12.298Z,19
2017-08-02T11:12:09.484Z,19
2017-08-02T11:14:07.342Z,19
2017-08-02T11:16:07.028Z,19
2017-08-02T11:18:17.228Z,19
2017-08-02T11:20:07.055Z,19
2017-08-02T11:22:09.286Z,19
2017-08-02T11:24:19.659Z,19
2017-08-02T11:26:07.729Z,19
2017-08-02T11:28:06.467Z,19
2017-08-02T11:30:07.193Z,19
2017-08-02T11:32:07.065Z,19
2017-08-02T11:34:11.973Z,19
2017-08-02T11:36:09.238Z,19
2017-08-02T11:38:07.121Z,19
2017-08-02T11:40:07.001Z,19
2017-08-02T11:42:06.688Z,19
2017-08-02T11:44:14.038Z,19
2017-08-02T11:46:09.350Z,19
2017-08-02T11:48:14.667Z,19
2017-08-02T11:50:07.513Z,19
2017-08-02T11:52:07.278Z,19
2017-08-02T11:54:09.456Z,19
2017-08-02T11:56:09.804Z,19
2017-08-02T11:58:06.524Z,19
2017-08-02T12:00:07.301Z,19
2017-08-02T12:02:09.545Z,19
2017-08-02T12:04:07.258Z,19
2017-08-02T12:06:06.987Z,19
2017-08-02T12:08:06.858Z,19
2017-08-02T12:10:11.597Z,19
2017-08-02T12:12:09.808Z,19
2017-08-02T12:14:09.181Z,19
2017-08-02T12:16:06.981Z,19
2017-08-02T12:18:06.932Z,19
2017-08-02T12:20:06.811Z,19
2017-08-02T12:22:06.797Z,19
2017-08-02T12:24:06.520Z,19
2017-08-02T12:26:07.204Z,19
2017-08-02T12:28:06.933Z,19
2017-08-02T12:30:06.818Z,19
2017-08-02T12:32:06.750Z,19
2017-08-02T12:34:06.473Z,19
2017-08-02T12:36:07.158Z,19
2017-08-02T12:38:07.226Z,19
2017-08-02T12:40:06.915Z,19
2017-08-02T12:42:11.701Z,19
2017-08-02T12:44:06.529Z,19
2017-08-02T12:46:07.458Z,19
2017-08-02T12:48:12.326Z,19
2017-08-02T12:50:07.391Z,19
2017-08-02T12:52:12.170Z,19
2017-08-02T12:54:11.966Z,19
2017-08-02T12:56:09.491Z,19
2017-08-02T12:58:07.138Z,19
2017-08-02T13:00:06.838Z,19
2017-08-02T13:02:06.744Z,19
2017-08-02T13:04:14.054Z,19
2017-08-02T13:06:06.812Z,19
2017-08-02T13:08:11.720Z,19
2017-08-02T13:10:14.044Z,19
2017-08-02T13:12:06.791Z,19
2017-08-02T13:14:09.037Z,19
2017-08-02T13:16:06.708Z,19
2017-08-02T13:18:11.679Z,19
2017-08-02T13:20:07.758Z,19
2017-08-02T13:22:06.445Z,19
2017-08-02T13:24:07.184Z,19
2017-08-02T13:26:14.495Z,19
2017-08-02T13:28:09.722Z,19
2017-08-02T13:30:06.486Z,19
2017-08-02T13:32:12.454Z,19
2017-08-02T13:34:09.660Z,19
2017-08-02T13:36:12.447Z,19
2017-08-02T13:38:12.620Z,19
2017-08-02T13:40:12.422Z,19
2017-08-02T13:42:10.016Z,19
2017-08-02T13:44:09.330Z,19
2017-08-02T13:46:09.659Z,19
2017-08-02T13:48:09.877Z,19
2017-08-02T13:50:06.614Z,19
2017-08-02T13:52:07.260Z,19
2017-08-02T13:54:09.506Z,19
2017-08-02T13:56:12.414Z,19
2017-08-02T13:58:07.461Z,19
2017-08-02T14:00:14.749Z,19
2017-08-02T14:02:09.125Z,19
2017-08-02T14:04:09.343Z,19
2017-08-02T14:06:09.698Z,19
2017-08-02T14:08:09.359Z,19
2017-08-02T14:10:07.126Z,19
2017-08-02T14:12:11.908Z,19
2017-08-02T14:14:06.832Z,19
2017-08-02T14:16:16.699Z,19
2017-08-02T14:18:11.650Z,19
2017-08-02T14:20:07.408Z,19
2017-08-02T14:22:09.612Z,19
2017-08-02T14:24:07.341Z,19
2017-08-02T14:26:07.121Z,19
2017-08-02T14:28:11.900Z,19
2017-08-02T14:30:14.444Z,19
2017-08-02T14:32:19.806Z,19
2017-08-02T14:34:06.558Z,19
2017-08-02T14:36:07.274Z,19
2017-08-02T14:38:12.168Z,19
2017-08-02T14:40:12.032Z,19
2017-08-02T14:42:06.838Z,19
2017-08-02T14:44:06.721Z,19
2017-08-02T14:46:08.999Z,19
2017-08-02T14:48:09.356Z,19
2017-08-02T14:50:12.110Z,19
2017-08-02T14:52:11.871Z,19
2017-08-02T14:54:14.136Z,19
2017-08-02T14:56:06.994Z,19
2017-08-02T14:58:14.463Z,19
2017-08-02T15:00:09.673Z,19
2017-08-02T15:02:07.595Z,19
2017-08-02T15:04:12.351Z,19
2017-08-02T15:06:07.029Z,19
2017-08-02T15:08:06.972Z,19
2017-08-02T15:10:06.663Z,19
2017-08-02T15:12:07.326Z,19
2017-08-02T15:14:07.282Z,19
2017-08-02T15:16:09.480Z,19
2017-08-02T15:18:09.932Z,19
2017-08-02T15:20:09.213Z,19
2017-08-02T15:22:06.919Z,19
2017-08-02T15:24:06.604Z,19
2017-08-02T15:26:12.699Z,19
2017-08-02T15:28:06.448Z,19
2017-08-02T15:30:07.363Z,19
2017-08-02T15:32:07.156Z,19
2017-08-02T15:34:06.908Z,19
2017-08-02T15:36:11.723Z,19
2017-08-02T15:38:16.596Z,19
2017-08-02T15:40:17.437Z,19
2017-08-02T15:42:07.121Z,19
2017-08-02T15:44:09.538Z,19
2017-08-02T15:46:07.447Z,19
2017-08-02T15:48:09.704Z,19
2017-08-02T15:50:06.768Z,19
2017-08-02T15:52:10.216Z,19
2017-08-02T15:54:06.904Z,19
2017-08-02T15:56:11.876Z,19
2017-08-02T15:58:09.116Z,19
2017-08-02T16:00:06.772Z,19
2017-08-02T16:02:14.224Z,19
2017-08-02T16:04:12.513Z,19
2017-08-02T16:06:07.367Z,19
2017-08-02T16:08:09.769Z,19
2017-08-02T16:10:06.462Z,19
2017-08-02T16:12:07.223Z,19
2017-08-02T16:14:12.177Z,19
2017-08-02T16:16:06.953Z,19
2017-08-02T16:18:09.488Z,19
2017-08-02T16:20:09.765Z,19
2017-08-02T16:22:14.144Z,19
2017-08-02T16:24:06.845Z,19
2017-08-02T16:26:06.634Z,19
2017-08-02T16:28:12.375Z,19
2017-08-02T16:30:07.215Z,19
2017-08-02T16:32:07.095Z,19
2017-08-02T16:34:07.116Z,19
2017-08-02T16:36:14.421Z,19
2017-08-02T16:38:12.353Z,19
2017-08-02T16:40:12.159Z,19
2017-08-02T16:42:06.849Z,19
2017-08-02T16:44:06.781Z,19
2017-08-02T16:46:06.498Z,19
2017-08-02T16:48:07.217Z,19
2017-08-02T16:50:12.386Z,19
2017-08-02T16:52:12.396Z,19
2017-08-02T16:54:12.301Z,19
2017-08-02T16:56:14.660Z,19
2017-08-02T16:58:27.925Z,19
2017-08-02T17:00:06.607Z,19
2017-08-02T17:02:10.228Z,19
2017-08-02T17:04:07.042Z,19
2017-08-02T17:06:06.819Z,19
2017-08-02T17:08:09.409Z,19
2017-08-02T17:10:12.318Z,19
2017-08-02T17:12:07.082Z,19
2017-08-02T17:14:06.900Z,19
2017-08-02T17:16:14.164Z,19
2017-08-02T17:18:07.048Z,19
2017-08-02T17:20:11.995Z,19
2017-08-02T17:22:09.252Z,19
2017-08-02T17:24:12.087Z,19
2017-08-02T17:26:09.609Z,19
2017-08-02T17:28:08.387Z,19
2017-08-02T17:30:27.370Z,19
2017-08-02T17:32:08.178Z,19
2017-08-02T17:34:29.677Z,19
2017-08-02T17:36:10.006Z,19
2017-08-02T17:38:07.808Z,19
2017-08-02T17:40:14.137Z,19
2017-08-02T17:42:07.005Z,19
2017-08-02T17:44:06.723Z,19
2017-08-02T17:46:06.450Z,20
2017-08-02T17:48:07.238Z,20
2017-08-02T17:50:06.997Z,20
2017-08-02T17:52:09.484Z,21
2017-08-02T17:54:07.243Z,20
2017-08-02T17:56:09.603Z,21
2017-08-02T17:58:07.315Z,22
2017-08-02T18:00:09.536Z,22
2017-08-02T18:02:07.392Z,22
2017-08-02T18:04:09.641Z,24
2017-08-02T18:06:07.309Z,23
2017-08-02T18:08:09.650Z,25
2017-08-02T18:10:07.415Z,25
2017-08-02T18:12:07.442Z,25
2017-08-02T18:14:07.358Z,25
2017-08-02T18:16:09.729Z,30
2017-08-02T18:18:06.653Z,30
2017-08-02T18:20:13.440Z,30
2017-08-02T18:22:07.368Z,30
2017-08-02T18:24:12.187Z,30
2017-08-02T18:26:06.935Z,30
2017-08-02T18:28:06.687Z,30
2017-08-02T18:30:07.378Z,30
2017-08-02T18:32:12.275Z,30
2017-08-02T18:34:06.951Z,30
2017-08-02T18:36:06.641Z,30
2017-08-02T18:38:10.367Z,30
2017-08-02T18:40:07.043Z,30
2017-08-02T18:42:06.878Z,30
2017-08-02T18:44:06.553Z,30
2017-08-02T18:46:07.605Z,30
2017-08-02T18:48:07.309Z,31
2017-08-02T18:50:09.641Z,31
2017-08-02T18:52:07.388Z,31
2017-08-02T18:54:07.176Z,32
2017-08-02T18:56:09.463Z,32
2017-08-02T18:58:07.270Z,32
2017-08-02T19:00:06.981Z,33
2017-08-02T19:02:11.917Z,33
2017-08-02T19:04:06.722Z,33
2017-08-02T19:06:06.468Z,34
2017-08-02T19:08:07.242Z,34
2017-08-02T19:10:06.943Z,34
2017-08-02T19:12:11.678Z,34
2017-08-02T19:14:12.495Z,34
2017-08-02T19:16:07.198Z,34
2017-08-02T19:18:10.236Z,34
2017-08-02T19:20:06.989Z,34
2017-08-02T19:22:11.739Z,35
2017-08-02T19:24:11.494Z,35
2017-08-02T19:26:07.411Z,35
2017-08-02T19:28:09.635Z,35
2017-08-02T19:30:10.120Z,35
2017-08-02T19:32:09.560Z,35
2017-08-02T19:34:07.363Z,35
2017-08-02T19:36:07.180Z,35
2017-08-02T19:38:09.484Z,35
2017-08-02T19:40:08.253Z,35
2017-08-02T19:42:07.933Z,35
2017-08-02T19:44:06.795Z,35
2017-08-02T19:46:06.722Z,35
2017-08-02T19:48:11.483Z,35
2017-08-02T19:50:12.629Z,35
2017-08-02T19:52:12.376Z,35
2017-08-02T19:54:07.023Z,35
2017-08-02T19:56:07.032Z,36
2017-08-02T19:58:09.269Z,36
2017-08-02T20:00:06.985Z,36
2017-08-02T20:02:11.978Z,36
2017-08-02T20:04:11.768Z,36
2017-08-02T20:06:06.697Z,36
2017-08-02T20:08:06.428Z,36
2017-08-02T20:10:09.663Z,36
2017-08-02T20:12:12.640Z,36
2017-08-02T20:14:10.234Z,36
2017-08-02T20:16:08.410Z,36
2017-08-02T20:18:07.291Z,37
2017-08-02T20:20:09.566Z,36
2017-08-02T20:22:07.271Z,37
2017-08-02T20:24:09.465Z,37
2017-08-02T20:26:07.484Z,37
2017-08-02T20:28:07.213Z,37
2017-08-02T20:30:09.478Z,37
2017-08-02T20:32:09.906Z,37
2017-08-02T20:34:09.122Z,37
2017-08-02T20:36:06.805Z,37
2017-08-02T20:38:09.234Z,37
2017-08-02T20:40:06.911Z,36
2017-08-02T20:42:14.299Z,36
2017-08-02T20:44:07.171Z,36
2017-08-02T20:46:06.845Z,36
2017-08-02T20:48:07.773Z,36
2017-08-02T20:50:09.162Z,36
2017-08-02T20:52:09.407Z,35
2017-08-02T20:54:12.390Z,35
2017-08-02T20:56:09.731Z,35
2017-08-02T20:58:06.503Z,35
2017-08-02T21:00:07.182Z,35
2017-08-02T21:02:09.495Z,35
2017-08-02T21:04:07.249Z,35
2017-08-02T21:06:07.062Z,35
2017-08-02T21:08:14.472Z,35
2017-08-02T21:10:12.212Z,35
2017-08-02T21:12:09.469Z,35
2017-08-02T21:14:17.557Z,35
2017-08-02T21:16:12.522Z,35
2017-08-02T21:18:06.430Z,35
2017-08-02T21:20:07.326Z,35
2017-08-02T21:22:12.088Z,35
2017-08-02T21:24:14.399Z,36
2017-08-02T21:26:07.396Z,35
2017-08-02T21:28:07.086Z,36
2017-08-02T21:30:09.392Z,36
2017-08-02T21:32:09.670Z,36
2017-08-02T21:34:07.422Z,36
2017-08-02T21:36:09.700Z,36
2017-08-02T21:38:09.024Z,36
2017-08-02T21:40:06.757Z,35
2017-08-02T21:42:09.120Z,36
2017-08-02T21:44:11.977Z,36
2017-08-02T21:46:06.687Z,36
2017-08-02T21:48:12.425Z,36
2017-08-02T21:50:14.761Z,36
2017-08-02T21:52:06.463Z,36
2017-08-02T21:54:07.215Z,36
2017-08-02T21:56:12.305Z,36
2017-08-02T21:58:07.082Z,37
2017-08-02T22:00:06.757Z,35
2017-08-02T22:02:06.491Z,37
2017-08-02T22:04:09.760Z,37
2017-08-02T22:06:06.467Z,37
2017-08-02T22:08:07.289Z,37
2017-08-02T22:10:09.523Z,37
2017-08-02T22:12:09.793Z,37
2017-08-02T22:14:06.763Z,36
2017-08-02T22:16:06.530Z,37
2017-08-02T22:18:16.558Z,37
2017-08-02T22:20:07.461Z,37
2017-08-02T22:22:07.155Z,37
2017-08-02T22:24:06.853Z,37
2017-08-02T22:26:09.449Z,37
2017-08-02T22:28:12.230Z,37
2017-08-02T22:30:07.396Z,37
2017-08-02T22:32:07.279Z,37
2017-08-02T22:34:09.558Z,37
2017-08-02T22:36:07.289Z,37
2017-08-02T22:38:07.037Z,37
2017-08-02T22:40:07.002Z,37
2017-08-02T22:42:11.940Z,37
2017-08-02T22:44:06.963Z,37
2017-08-02T22:46:07.023Z,37
2017-08-02T22:48:11.780Z,37
2017-08-02T22:50:06.562Z,37
2017-08-02T22:52:12.341Z,38
2017-08-02T22:54:07.064Z,38
2017-08-02T22:56:09.300Z,38
2017-08-02T22:58:07.281Z,38
2017-08-02T23:00:07.005Z,38
2017-08-02T23:02:06.914Z,38
2017-08-02T23:04:06.673Z,38
2017-08-02T23:06:10.030Z,38
2017-08-02T23:08:06.806Z,39
2017-08-02T23:10:09.086Z,39
2017-08-02T23:12:11.933Z,39
2017-08-02T23:14:06.985Z,39
2017-08-02T23:16:09.341Z,39
2017-08-02T23:18:10.142Z,39
2017-08-02T23:20:09.756Z,40
2017-08-02T23:22:09.062Z,40
2017-08-02T23:24:06.822Z,40
2017-08-02T23:26:06.676Z,40
2017-08-02T23:28:07.421Z,39
2017-08-02T23:30:07.188Z,39
2017-08-02T23:32:09.444Z,39
2017-08-02T23:34:07.416Z,40
2017-08-02T23:36:07.208Z,39
2017-08-02T23:38:09.557Z,40
2017-08-02T23:40:07.298Z,40
2017-08-02T23:42:09.553Z,40
2017-08-02T23:44:09.960Z,40
2017-08-02T23:46:09.177Z,40
2017-08-02T23:48:06.887Z,40
2017-08-02T23:50:06.734Z,40
2017-08-02T23:52:08.950Z,40
2017-08-02T23:54:06.720Z,40
2017-08-02T23:56:06.481Z,40
2017-08-02T23:58:07.198Z,40
